createdAt,value
2022-11-08T00:00:45.243Z,93.92
2022-11-08T00:03:12.904Z,93.99
2022-11-08T00:05:58.937Z,93.02
2022-11-08T00:08:44.767Z,92.62
2022-11-08T00:11:30.637Z,91.40
2022-11-08T00:13:59.400Z,89.17
2022-11-08T00:16:28.566Z,86.65
2022-11-08T00:18:56.113Z,88.81
2022-11-08T00:21:24.131Z,90.45
2022-11-08T00:23:51.677Z,90.65
2022-11-08T00:26:19.169Z,88.54
2022-11-08T00:28:46.659Z,90.94
2022-11-08T00:31:14.203Z,91.52
2022-11-08T00:33:41.713Z,92.64
2022-11-08T00:36:09.643Z,92.55
2022-11-08T00:38:37.214Z,92.67
2022-11-08T00:41:04.713Z,93.78
2022-11-08T00:43:32.434Z,93.48
2022-11-08T00:45:59.871Z,92.65
2022-11-08T00:48:27.398Z,93.74
2022-11-08T00:50:54.862Z,94.69
2022-11-08T00:53:22.308Z,93.81
2022-11-08T00:55:49.800Z,93.97
2022-11-08T00:58:17.421Z,94.65
2022-11-08T01:00:45.200Z,91.96
2022-11-08T01:03:21.738Z,89.43
2022-11-08T01:05:50.463Z,89.90
2022-11-08T01:08:20.250Z,91.67
2022-11-08T01:10:53.055Z,92.40
2022-11-08T01:13:21.147Z,93.98
2022-11-08T01:15:49.604Z,92.03
2022-11-08T01:18:18.003Z,94.18
2022-11-08T01:20:47.950Z,95.61
2022-11-08T01:23:17.113Z,97.46
2022-11-08T01:25:47.395Z,97.98
2022-11-08T01:28:15.888Z,96.98
2022-11-08T01:30:45.256Z,96.21
2022-11-08T01:33:13.682Z,96.74
2022-11-08T01:35:45.211Z,97.44
2022-11-08T01:38:13.303Z,97.23
2022-11-08T01:40:48.517Z,96.31
2022-11-08T01:43:40.275Z,96.56
2022-11-08T01:46:12.968Z,97.76
2022-11-08T01:49:25.151Z,97.08
2022-11-08T01:52:08.399Z,97.98
2022-11-08T01:54:44.955Z,97.96
2022-11-08T01:57:19.617Z,97.58
2022-11-08T01:59:50.279Z,97.71
2022-11-08T02:02:18.717Z,96.37
2022-11-08T02:04:46.260Z,96.22
2022-11-08T02:07:14.729Z,95.22
2022-11-08T02:09:46.551Z,96.17
2022-11-08T02:12:15.991Z,97.66
2022-11-08T02:14:43.961Z,97.55
2022-11-08T02:17:11.990Z,97.39
2022-11-08T02:19:51.785Z,97.71
2022-11-08T02:22:29.594Z,98.57
2022-11-08T02:24:58.616Z,98.66
2022-11-08T02:27:26.770Z,97.56
2022-11-08T02:29:56.011Z,97.55
2022-11-08T02:32:26.381Z,97.84
2022-11-08T02:34:58.590Z,98.06
2022-11-08T02:37:27.172Z,98.76
2022-11-08T02:39:54.731Z,98.05
2022-11-08T02:42:22.300Z,98.38
2022-11-08T02:44:50.034Z,98.75
2022-11-08T02:47:17.788Z,98.84
2022-11-08T02:49:45.350Z,98.58
2022-11-08T02:52:12.894Z,98.46
2022-11-08T02:54:40.407Z,99.01
2022-11-08T02:57:07.971Z,98.67
2022-11-08T02:59:35.429Z,98.25
2022-11-08T03:02:02.976Z,96.99
2022-11-08T03:04:30.533Z,97.31
2022-11-08T03:06:58.045Z,97.54
2022-11-08T03:09:27.202Z,97.27
2022-11-08T03:11:54.709Z,98.04
2022-11-08T03:14:22.484Z,97.82
2022-11-08T03:16:49.905Z,99.33
2022-11-08T03:19:17.385Z,99.97
2022-11-08T03:21:44.960Z,98.52
2022-11-08T03:24:12.761Z,97.92
2022-11-08T03:26:40.258Z,98.33
2022-11-08T03:29:07.857Z,98.03
2022-11-08T03:31:35.356Z,97.94
2022-11-08T03:34:05.299Z,96.45
2022-11-08T03:36:32.722Z,95.84
2022-11-08T03:39:00.246Z,95.82
2022-11-08T03:41:27.782Z,95.31
2022-11-08T03:43:55.253Z,96.61
2022-11-08T03:46:22.788Z,97.19
2022-11-08T03:48:50.305Z,98.38
2022-11-08T03:51:17.880Z,97.55
2022-11-08T03:53:45.383Z,97.98
2022-11-08T03:56:12.837Z,98.68
2022-11-08T03:58:40.242Z,98.70
2022-11-08T04:01:08.154Z,99.73
2022-11-08T04:03:35.737Z,98.84
2022-11-08T04:06:04.554Z,98.40
2022-11-08T04:08:32.159Z,98.45
2022-11-08T04:11:20.739Z,98.42
2022-11-08T04:14:06.909Z,97.81
2022-11-08T04:16:34.633Z,97.59
2022-11-08T04:19:20.781Z,97.62
2022-11-08T04:21:50.989Z,98.36
2022-11-08T04:24:18.567Z,98.92
2022-11-08T04:26:46.413Z,98.92
2022-11-08T04:29:14.370Z,98.03
2022-11-08T04:31:42.144Z,97.34
2022-11-08T04:34:09.653Z,94.62
2022-11-08T04:36:37.101Z,96.04
2022-11-08T04:39:04.729Z,96.33
2022-11-08T04:41:32.285Z,96.54
2022-11-08T04:43:59.842Z,96.75
2022-11-08T04:46:29.454Z,96.82
2022-11-08T04:48:59.395Z,96.97
2022-11-08T04:51:31.015Z,97.05
2022-11-08T04:54:02.614Z,96.93
2022-11-08T04:56:31.766Z,96.30
2022-11-08T04:59:01.226Z,98.18
2022-11-08T05:01:33.281Z,97.81
2022-11-08T05:04:00.825Z,99.41
2022-11-08T05:06:32.510Z,100.00
2022-11-08T05:09:00.711Z,97.83
2022-11-08T05:11:30.535Z,97.70
2022-11-08T05:13:58.813Z,98.47
2022-11-08T05:16:32.283Z,98.77
2022-11-08T05:19:00.502Z,98.49
2022-11-08T05:21:47.122Z,96.29
2022-11-08T05:24:17.591Z,96.97
2022-11-08T05:26:48.354Z,98.00
2022-11-08T05:29:17.188Z,99.30
2022-11-08T05:31:45.079Z,98.95
2022-11-08T05:34:12.604Z,95.68
2022-11-08T05:36:40.093Z,97.27
2022-11-08T05:39:07.531Z,98.03
2022-11-08T05:41:35.001Z,99.95
2022-11-08T05:44:02.529Z,100.00
2022-11-08T05:46:29.956Z,100.00
2022-11-08T05:48:57.439Z,100.00
2022-11-08T05:51:24.966Z,100.00
2022-11-08T05:53:52.441Z,100.00
2022-11-08T05:56:21.286Z,99.42
2022-11-08T05:58:48.920Z,100.00
2022-11-08T06:01:20.824Z,98.69
2022-11-08T06:03:48.920Z,99.48
2022-11-08T06:06:19.958Z,98.97
2022-11-08T06:08:50.553Z,99.29
2022-11-08T06:11:23.141Z,100.00
2022-11-08T06:13:53.456Z,98.70
2022-11-08T06:16:23.379Z,96.21
2022-11-08T06:18:50.882Z,96.40
2022-11-08T06:21:21.416Z,95.78
2022-11-08T06:23:53.592Z,97.55
2022-11-08T06:26:22.949Z,95.71
2022-11-08T06:28:50.646Z,95.08
2022-11-08T06:31:18.073Z,94.82
2022-11-08T06:33:46.418Z,98.65
2022-11-08T06:36:13.855Z,100.00
2022-11-08T06:38:41.353Z,98.12
2022-11-08T06:41:17.228Z,98.94
2022-11-08T06:43:44.688Z,97.77
2022-11-08T06:46:12.194Z,98.51
2022-11-08T06:48:39.710Z,99.20
2022-11-08T06:51:07.440Z,95.97
2022-11-08T06:53:36.514Z,97.68
2022-11-08T06:56:04.437Z,98.03
2022-11-08T06:58:32.054Z,98.46
2022-11-08T07:01:02.339Z,98.06
2022-11-08T07:03:30.508Z,97.29
2022-11-08T07:05:58.147Z,98.15
2022-11-08T07:08:25.632Z,97.44
2022-11-08T07:10:53.775Z,97.30
2022-11-08T07:13:21.778Z,97.34
2022-11-08T07:15:49.518Z,96.27
2022-11-08T07:18:19.359Z,95.02
2022-11-08T07:20:47.153Z,94.77
2022-11-08T07:23:15.124Z,94.86
2022-11-08T07:25:42.687Z,94.36
2022-11-08T07:28:18.552Z,94.29
2022-11-08T07:30:48.020Z,93.21
2022-11-08T07:33:16.885Z,92.98
2022-11-08T07:35:47.617Z,92.27
2022-11-08T07:38:15.123Z,90.07
2022-11-08T07:40:43.161Z,90.81
2022-11-08T07:43:23.366Z,90.26
2022-11-08T07:46:02.457Z,90.34
2022-11-08T07:48:31.711Z,89.18
2022-11-08T07:50:59.161Z,88.33
2022-11-08T07:53:26.640Z,88.28
2022-11-08T07:55:55.198Z,86.45
2022-11-08T07:58:22.746Z,85.81
2022-11-08T08:00:52.794Z,86.24
2022-11-08T08:03:20.861Z,86.36
2022-11-08T08:06:00.740Z,86.94
2022-11-08T08:08:29.875Z,85.38
2022-11-08T08:11:19.577Z,82.97
2022-11-08T08:13:47.430Z,81.50
2022-11-08T08:16:14.830Z,79.09
2022-11-08T08:18:42.317Z,78.48
2022-11-08T08:21:12.549Z,77.82
2022-11-08T08:23:40.051Z,78.28
2022-11-08T08:26:07.593Z,77.73
2022-11-08T08:28:35.054Z,78.54
2022-11-08T08:31:02.541Z,77.43
2022-11-08T08:33:30.179Z,77.71
2022-11-08T08:36:01.316Z,77.94
2022-11-08T08:38:32.835Z,77.23
2022-11-08T08:41:02.449Z,76.74
2022-11-08T08:43:35.158Z,76.60
2022-11-08T08:46:07.019Z,77.02
2022-11-08T08:48:35.911Z,77.47
2022-11-08T08:51:03.343Z,77.12
2022-11-08T08:53:30.805Z,76.69
2022-11-08T08:55:58.417Z,76.14
2022-11-08T08:58:25.946Z,74.88
2022-11-08T09:03:40.946Z,72.49
2022-11-08T09:06:08.414Z,72.75
2022-11-08T09:08:36.029Z,72.78
2022-11-08T09:11:03.676Z,73.76
2022-11-08T09:13:32.417Z,74.37
2022-11-08T09:16:02.911Z,74.22
2022-11-08T09:18:31.458Z,74.72
2022-11-08T09:20:59.317Z,72.89
2022-11-08T09:23:27.367Z,72.12
2022-11-08T09:26:04.271Z,72.42
2022-11-08T09:28:34.156Z,72.07
2022-11-08T09:31:06.625Z,70.62
2022-11-08T09:33:34.823Z,71.66
2022-11-08T09:36:04.335Z,72.75
2022-11-08T09:38:32.151Z,72.39
2022-11-08T09:41:17.559Z,70.93
2022-11-08T09:43:47.767Z,70.53
2022-11-08T09:47:18.785Z,69.56
2022-11-08T09:50:20.681Z,65.03
2022-11-08T09:53:20.237Z,59.98
2022-11-08T09:56:01.244Z,59.43
2022-11-08T09:58:41.137Z,61.17
2022-11-08T10:01:12.700Z,58.23
2022-11-08T10:03:44.961Z,57.39
2022-11-08T10:06:39.635Z,56.73
2022-11-08T10:09:25.248Z,55.87
2022-11-08T10:12:27.841Z,55.16
2022-11-08T10:15:12.509Z,55.00
2022-11-08T10:17:50.716Z,52.02
2022-11-08T10:20:30.144Z,53.34
2022-11-08T10:23:08.196Z,54.10
2022-11-08T10:25:48.226Z,53.42
2022-11-08T10:28:22.880Z,53.26
2022-11-08T10:30:54.354Z,52.42
2022-11-08T10:33:49.533Z,53.92
2022-11-08T10:36:42.466Z,55.35
2022-11-08T10:39:25.018Z,56.42
2022-11-08T10:42:05.949Z,56.87
2022-11-08T10:44:35.245Z,56.92
2022-11-08T10:47:07.120Z,56.43
2022-11-08T10:49:44.131Z,55.58
2022-11-08T10:52:26.233Z,55.71
2022-11-08T10:54:56.553Z,56.64
2022-11-08T10:57:33.333Z,57.04
2022-11-08T11:00:21.098Z,57.60
2022-11-08T11:02:53.938Z,57.49
2022-11-08T11:05:29.385Z,56.61
2022-11-08T11:08:08.618Z,55.42
2022-11-08T11:10:41.046Z,55.22
2022-11-08T11:13:29.168Z,54.95
2022-11-08T11:16:00.057Z,52.89
2022-11-08T11:18:49.094Z,49.71
2022-11-08T11:21:23.006Z,49.04
2022-11-08T11:23:56.443Z,46.45
2022-11-08T11:26:34.358Z,45.98
2022-11-08T11:29:19.746Z,43.90
2022-11-08T11:31:50.773Z,41.26
2022-11-08T11:34:18.177Z,41.97
2022-11-08T11:36:51.222Z,41.80
2022-11-08T11:39:44.330Z,41.62
2022-11-08T11:42:47.300Z,41.70
2022-11-08T11:45:35.253Z,41.20
2022-11-08T11:48:15.602Z,41.88
2022-11-08T11:50:49.906Z,41.69
2022-11-08T11:53:23.307Z,41.64
2022-11-08T11:56:18.133Z,41.80
2022-11-08T11:59:41.891Z,42.92
2022-11-08T12:02:53.455Z,43.35
2022-11-08T12:05:59.793Z,44.95
2022-11-08T12:08:54.482Z,45.00
2022-11-08T12:11:47.649Z,43.12
2022-11-08T12:14:29.780Z,42.94
2022-11-08T12:17:37.911Z,42.91
2022-11-08T12:20:39.402Z,43.79
2022-11-08T12:23:18.721Z,42.71
2022-11-08T12:26:11.302Z,41.94
2022-11-08T12:29:00.430Z,43.44
2022-11-08T12:31:43.075Z,42.45
2022-11-08T12:34:43.493Z,43.97
2022-11-08T12:37:42.751Z,44.58
2022-11-08T12:40:45.467Z,44.07
2022-11-08T12:43:35.910Z,43.40
2022-11-08T12:46:19.378Z,44.23
2022-11-08T12:49:16.074Z,44.73
2022-11-08T12:52:27.584Z,43.75
2022-11-08T12:55:02.708Z,42.33
2022-11-08T12:57:31.382Z,42.85
2022-11-08T13:00:28.321Z,42.51
2022-11-08T13:03:30.846Z,43.45
2022-11-08T13:06:15.165Z,43.03
2022-11-08T13:09:22.466Z,40.80
2022-11-08T13:12:02.617Z,40.44
2022-11-08T13:14:31.045Z,40.73
2022-11-08T13:32:12.198Z,40.25
2022-11-08T13:34:56.332Z,41.50
2022-11-08T13:38:08.409Z,41.79
2022-11-08T13:40:46.693Z,43.41
2022-11-08T13:43:22.568Z,42.83
2022-11-08T13:45:50.633Z,42.26
2022-11-08T13:48:23.738Z,42.60
2022-11-08T13:51:15.100Z,42.66
2022-11-08T13:53:53.097Z,42.92
2022-11-08T13:57:00.621Z,41.96
2022-11-08T13:59:31.071Z,42.63
2022-11-08T14:01:58.905Z,43.89
2022-11-08T14:04:33.630Z,44.66
2022-11-08T14:07:25.958Z,46.69
2022-11-08T14:10:04.482Z,47.33
2022-11-08T14:13:27.793Z,48.60
2022-11-08T14:16:07.800Z,49.41
2022-11-08T14:18:39.283Z,50.08
2022-11-08T14:21:08.231Z,51.19
2022-11-08T14:23:40.318Z,51.30
2022-11-08T14:26:22.268Z,52.22
2022-11-08T14:28:52.398Z,53.23
2022-11-08T14:31:31.885Z,54.00
2022-11-08T14:34:01.054Z,54.94
2022-11-08T14:36:31.062Z,55.84
2022-11-08T14:39:16.298Z,56.39
2022-11-08T14:41:53.213Z,57.18
2022-11-08T14:44:25.071Z,58.10
2022-11-08T14:46:53.934Z,58.69
2022-11-08T14:49:35.159Z,60.32
2022-11-08T14:52:07.711Z,60.47
2022-11-08T14:54:42.967Z,60.81
2022-11-08T14:57:32.675Z,61.35
2022-11-08T15:00:13.787Z,60.70
2022-11-08T15:02:56.689Z,59.73
2022-11-08T15:05:39.669Z,59.59
2022-11-08T15:08:27.592Z,59.64
2022-11-08T15:10:59.502Z,59.91
2022-11-08T15:13:30.626Z,60.05
2022-11-08T15:16:04.034Z,60.95
2022-11-08T15:18:43.604Z,61.68
2022-11-08T15:21:22.615Z,61.34
2022-11-08T15:24:12.091Z,62.52
2022-11-08T15:27:01.684Z,62.60
2022-11-08T15:29:29.169Z,62.75
2022-11-08T15:32:01.930Z,63.11
2022-11-08T15:34:39.096Z,63.69
2022-11-08T15:37:36.284Z,64.47
2022-11-08T15:40:31.883Z,65.25
2022-11-08T15:43:01.044Z,66.31
2022-11-08T15:45:33.074Z,66.90
2022-11-08T15:48:09.164Z,66.88
2022-11-08T15:50:36.887Z,67.05
2022-11-08T15:53:05.872Z,67.35
2022-11-08T15:55:39.639Z,67.90
2022-11-08T15:58:18.423Z,67.39
2022-11-08T16:00:57.791Z,68.18
2022-11-08T16:03:25.717Z,68.99
2022-11-08T16:05:53.326Z,69.16
2022-11-08T16:08:21.353Z,69.40
2022-11-08T16:11:01.246Z,70.38
2022-11-08T16:13:36.703Z,70.91
2022-11-08T16:16:12.087Z,71.09
2022-11-08T16:18:41.452Z,71.39
2022-11-08T16:21:13.447Z,71.37
2022-11-08T16:23:42.006Z,72.63
2022-11-08T16:26:17.216Z,72.90
2022-11-08T16:28:45.534Z,73.16
2022-11-08T16:31:16.432Z,72.86
2022-11-08T16:33:46.255Z,72.52
2022-11-08T16:36:23.488Z,72.74
2022-11-08T16:38:54.763Z,72.43
2022-11-08T16:41:23.860Z,72.45
2022-11-08T16:43:51.552Z,71.82
2022-11-08T16:46:22.088Z,72.02
2022-11-08T16:48:58.372Z,72.29
2022-11-08T16:51:28.200Z,72.80
2022-11-08T16:53:55.770Z,72.52
2022-11-08T16:56:26.390Z,72.71
2022-11-08T16:58:54.970Z,73.02
2022-11-08T17:01:35.631Z,73.14
2022-11-08T17:04:05.436Z,73.59
2022-11-08T17:06:33.804Z,73.24
2022-11-08T17:09:05.850Z,74.07
2022-11-08T17:11:34.477Z,73.90
2022-11-08T17:14:07.946Z,74.76
2022-11-08T17:16:47.300Z,75.27
2022-11-08T17:19:14.890Z,75.27
2022-11-08T17:21:45.562Z,75.31
2022-11-08T17:24:21.545Z,74.83
2022-11-08T17:26:51.377Z,75.40
2022-11-08T17:29:19.965Z,75.51
2022-11-08T17:31:53.798Z,75.81
2022-11-08T17:34:21.916Z,75.90
2022-11-08T17:36:53.119Z,76.33
2022-11-08T17:39:21.609Z,76.38
2022-11-08T17:41:51.569Z,75.69
2022-11-08T17:44:20.771Z,76.69
2022-11-08T17:46:49.294Z,76.71
2022-11-08T17:49:19.937Z,77.50
2022-11-08T17:51:48.879Z,78.10
2022-11-08T17:54:17.386Z,78.33
2022-11-08T17:56:51.821Z,78.48
2022-11-08T17:59:22.559Z,78.57
2022-11-08T18:01:51.484Z,78.59
2022-11-08T18:04:20.140Z,78.75
2022-11-08T18:06:49.066Z,79.33
2022-11-08T18:09:19.137Z,79.13
2022-11-08T18:11:48.506Z,79.41
2022-11-08T18:14:28.806Z,79.80
2022-11-08T18:17:00.245Z,80.01
2022-11-08T18:19:30.873Z,80.14
2022-11-08T18:22:00.385Z,80.33
2022-11-08T18:24:35.049Z,80.56
2022-11-08T18:27:05.483Z,80.42
2022-11-08T18:29:36.924Z,80.71
2022-11-08T18:32:05.173Z,81.15
2022-11-08T18:34:32.737Z,81.67
2022-11-08T18:37:00.457Z,81.61
2022-11-08T18:39:28.006Z,81.99
2022-11-08T18:41:56.479Z,82.15
2022-11-08T18:44:24.926Z,82.09
2022-11-08T18:46:58.363Z,82.29
2022-11-08T18:49:29.790Z,81.33
2022-11-08T18:51:59.965Z,81.82
2022-11-08T18:54:31.889Z,81.31
2022-11-08T18:57:02.307Z,81.31
2022-11-08T18:59:35.740Z,81.06
2022-11-08T19:02:03.496Z,81.96
2022-11-08T19:04:31.425Z,82.29
2022-11-08T19:07:01.033Z,83.49
2022-11-08T19:09:29.029Z,83.33
2022-11-08T19:12:00.482Z,83.82
2022-11-08T19:14:30.985Z,83.61
2022-11-08T19:17:01.575Z,84.01
2022-11-08T19:19:29.985Z,84.40
2022-11-08T19:22:00.631Z,84.57
2022-11-08T19:24:31.155Z,85.04
2022-11-08T19:26:58.689Z,85.12
2022-11-08T19:29:28.734Z,83.22
2022-11-08T19:32:01.325Z,82.39
2022-11-08T19:34:34.032Z,83.66
2022-11-08T19:37:01.920Z,83.88
2022-11-08T19:39:33.678Z,84.55
2022-11-08T19:42:03.239Z,84.76
2022-11-08T19:44:32.825Z,85.00
2022-11-08T19:47:03.148Z,85.53
2022-11-08T19:49:35.615Z,85.93
2022-11-08T19:52:06.620Z,86.63
2022-11-08T19:54:36.948Z,87.47
2022-11-08T19:57:05.809Z,87.20
2022-11-08T19:59:38.090Z,87.25
2022-11-08T20:02:08.931Z,88.56
2022-11-08T20:04:36.746Z,87.66
2022-11-08T20:07:05.803Z,86.46
2022-11-08T20:09:39.505Z,83.95
2022-11-08T20:12:09.755Z,84.36
2022-11-08T20:14:38.278Z,86.03
2022-11-08T20:17:07.626Z,87.83
2022-11-08T20:19:35.170Z,89.46
2022-11-08T20:22:04.671Z,89.68
2022-11-08T20:24:32.977Z,89.73
2022-11-08T20:27:05.247Z,90.88
2022-11-08T20:29:34.436Z,91.13
2022-11-08T20:32:03.759Z,90.91
2022-11-08T20:34:33.074Z,92.00
2022-11-08T20:37:21.611Z,90.90
2022-11-08T20:39:49.235Z,89.92
2022-11-08T20:42:20.772Z,89.97
2022-11-08T20:44:56.046Z,89.80
2022-11-08T20:47:24.670Z,90.38
2022-11-08T20:49:54.873Z,89.61
2022-11-08T20:52:26.710Z,90.01
2022-11-08T20:54:56.982Z,90.57
2022-11-08T20:57:24.560Z,90.23
2022-11-08T20:59:53.934Z,90.84
2022-11-08T21:02:22.157Z,91.13
2022-11-08T21:04:49.767Z,91.44
2022-11-08T21:10:35.905Z,91.95
2022-11-08T21:12:53.958Z,91.68
2022-11-08T21:15:26.794Z,91.13
2022-11-08T21:17:54.655Z,91.14
2022-11-08T21:20:23.437Z,91.28
2022-11-08T21:22:50.987Z,90.74
2022-11-08T21:25:19.739Z,89.97
2022-11-08T21:27:48.600Z,90.43
2022-11-08T21:30:16.926Z,90.36
2022-11-08T21:32:44.397Z,89.97
2022-11-08T21:35:15.999Z,88.81
2022-11-08T21:37:44.644Z,87.30
2022-11-08T21:40:12.456Z,88.24
2022-11-08T21:42:42.658Z,89.00
2022-11-08T21:45:14.736Z,90.06
2022-11-08T21:47:43.365Z,89.40
2022-11-08T21:50:11.078Z,89.07
2022-11-08T21:52:41.957Z,89.97
2022-11-08T21:55:12.537Z,90.29
2022-11-08T21:57:42.045Z,91.88
2022-11-08T22:00:12.116Z,92.93
2022-11-08T22:02:41.291Z,93.53
2022-11-08T22:05:09.936Z,93.72
2022-11-08T22:07:38.162Z,94.04
2022-11-08T22:10:07.033Z,94.42
2022-11-08T22:12:35.718Z,93.56
2022-11-08T22:15:03.167Z,93.98
2022-11-08T22:17:30.760Z,93.31
2022-11-08T22:19:58.188Z,93.99
2022-11-08T22:22:25.687Z,93.45
2022-11-08T22:24:53.451Z,93.56
2022-11-08T22:27:20.960Z,94.39
2022-11-08T22:29:48.424Z,94.17
2022-11-08T22:32:15.908Z,93.51
2022-11-08T22:34:44.153Z,92.62
2022-11-08T22:37:11.569Z,92.43
2022-11-08T22:39:39.156Z,92.90
2022-11-08T22:42:06.611Z,92.97
2022-11-08T22:44:34.166Z,92.32
2022-11-08T22:47:01.642Z,92.39
2022-11-08T22:49:29.117Z,93.80
2022-11-08T22:51:59.076Z,94.21
2022-11-08T22:54:27.469Z,94.79
2022-11-08T22:56:55.043Z,94.45
2022-11-08T22:59:22.488Z,94.90
2022-11-08T23:01:50.035Z,95.52
2022-11-08T23:04:17.653Z,96.13
2022-11-08T23:06:45.187Z,94.64
2022-11-08T23:09:12.792Z,95.77
2022-11-08T23:11:58.806Z,95.57
2022-11-08T23:14:44.681Z,96.84
2022-11-08T23:17:12.870Z,97.37
2022-11-08T23:19:58.756Z,97.50
2022-11-08T23:22:44.634Z,98.21
2022-11-08T23:25:12.147Z,97.16
2022-11-08T23:27:59.508Z,97.48
2022-11-08T23:30:45.748Z,97.89
2022-11-08T23:33:13.394Z,96.57
2022-11-08T23:36:01.913Z,96.49
2022-11-08T23:38:29.997Z,95.75
2022-11-08T23:41:18.358Z,96.56
2022-11-08T23:44:04.703Z,96.25
2022-11-08T23:46:32.310Z,97.77
2022-11-08T23:48:59.836Z,96.69
2022-11-08T23:51:27.288Z,97.39
2022-11-08T23:53:54.776Z,97.30
2022-11-08T23:56:27.583Z,96.91
2022-11-08T23:58:58.996Z,96.81
